createdAt,value
2018-10-09T00:00:43.345Z,99.73
2018-10-09T00:01:42.714Z,99.91
2018-10-09T00:02:42.683Z,99.15
2018-10-09T00:03:41.834Z,99.73
2018-10-09T00:04:45.967Z,99.77
2018-10-09T00:05:45.400Z,99.48
2018-10-09T00:06:45.386Z,99.87
2018-10-09T00:07:43.626Z,99.77
2018-10-09T00:08:44.389Z,99.68
2018-10-09T00:09:43.736Z,99.39
2018-10-09T00:10:43.405Z,99.34
2018-10-09T00:11:49.918Z,99.73
2018-10-09T00:12:52.008Z,99.48
2018-10-09T00:13:51.386Z,99.29
2018-10-09T00:14:50.886Z,99.29
2018-10-09T00:15:49.887Z,99.1
2018-10-09T00:16:48.910Z,99.99
2018-10-09T00:17:48.507Z,99.58
2018-10-09T00:18:47.041Z,99.58
2018-10-09T00:19:47.393Z,99.99
2018-10-09T00:20:46.895Z,99.99
2018-10-09T00:21:47.141Z,99.96
2018-10-09T00:22:46.307Z,99.99
2018-10-09T00:23:46.105Z,99.99
2018-10-09T00:24:47.163Z,99.99
2018-10-09T00:25:48.394Z,99.99
2018-10-09T00:26:46.188Z,99.99
2018-10-09T00:27:44.703Z,99.99
2018-10-09T00:28:44.645Z,99.96
2018-10-09T00:29:45.386Z,99.68
2018-10-09T00:30:45.475Z,99.68
2018-10-09T00:31:44.920Z,99.1
2018-10-09T00:32:42.573Z,99.29
2018-10-09T00:33:41.909Z,99.58
2018-10-09T00:34:42.324Z,99.39
2018-10-09T00:35:41.780Z,99.68
2018-10-09T00:36:41.320Z,99.39
2018-10-09T00:37:39.853Z,99.1
2018-10-09T00:38:38.973Z,98.62
2018-10-09T00:39:38.896Z,98.52
2018-10-09T00:40:38.543Z,98.72
2018-10-09T00:41:37.682Z,99.01
2018-10-09T00:42:36.454Z,98.72
2018-10-09T00:43:35.904Z,99.77
2018-10-09T00:44:35.899Z,99.82
2018-10-09T00:45:34.057Z,99.99
2018-10-09T00:46:35.395Z,99.99
2018-10-09T00:47:33.899Z,99.99
2018-10-09T00:48:34.090Z,99.99
2018-10-09T00:49:32.629Z,99.87
2018-10-09T00:50:32.901Z,99.99
2018-10-09T00:51:30.559Z,99.43
2018-10-09T00:52:29.904Z,99.82
2018-10-09T00:53:29.477Z,99.87
2018-10-09T00:54:31.811Z,99.68
2018-10-09T00:55:31.396Z,99.77
2018-10-09T00:56:30.899Z,99.39
2018-10-09T00:57:28.259Z,99.29
2018-10-09T00:58:26.828Z,99.29
2018-10-09T00:59:25.977Z,99.29
2018-10-09T01:00:25.505Z,99.19
2018-10-09T01:01:24.048Z,99.29
2018-10-09T01:02:23.981Z,99.39
2018-10-09T01:03:24.399Z,99.39
2018-10-09T01:04:24.407Z,98.62
2018-10-09T01:05:22.076Z,98.91
2018-10-09T01:08:04.225Z,99.34
2018-10-09T01:09:02.856Z,99.15
2018-10-09T01:10:02.207Z,99.77
2018-10-09T01:11:00.896Z,99.87
2018-10-09T01:11:59.407Z,99.39
2018-10-09T01:12:58.711Z,99.19
2018-10-09T01:13:57.219Z,99.1
2018-10-09T01:14:58.204Z,99.77
2018-10-09T01:15:58.206Z,99.24
2018-10-09T01:16:56.246Z,99.24
2018-10-09T01:17:55.704Z,99.82
2018-10-09T01:18:54.720Z,99.15
2018-10-09T01:19:52.495Z,98.96
2018-10-09T01:20:54.714Z,99.34
2018-10-09T01:21:53.933Z,99.82
2018-10-09T01:22:53.879Z,99.63
2018-10-09T01:23:53.849Z,99.91
2018-10-09T01:24:55.878Z,99.99
2018-10-09T01:25:54.403Z,99.53
2018-10-09T01:26:53.458Z,99.99
2018-10-09T01:27:53.298Z,99.82
2018-10-09T01:28:53.225Z,99.91
2018-10-09T01:29:53.725Z,99.63
2018-10-09T01:30:51.323Z,99.34
2018-10-09T01:31:52.220Z,99.34
2018-10-09T01:32:50.372Z,99.15
2018-10-09T01:33:50.220Z,99.05
2018-10-09T01:34:49.949Z,98.67
2018-10-09T01:35:49.858Z,98.76
2018-10-09T01:36:50.218Z,98.67
2018-10-09T01:37:50.218Z,98.76
2018-10-09T01:38:50.214Z,98.96
2018-10-09T01:39:48.880Z,98.67
2018-10-09T01:40:48.662Z,98.1
2018-10-09T01:41:47.180Z,98.19
2018-10-09T01:42:46.221Z,98.28
2018-10-09T01:43:45.062Z,98.38
2018-10-09T01:44:43.597Z,98.47
2018-10-09T01:45:43.723Z,99.05
2018-10-09T01:46:42.260Z,98.28
2018-10-09T01:47:42.744Z,98.1
2018-10-09T01:48:42.729Z,98.19
2018-10-09T01:49:41.396Z,98.47
2018-10-09T01:50:41.391Z,98.28
2018-10-09T01:51:40.832Z,98.1
2018-10-09T01:52:41.218Z,98.28
2018-10-09T01:53:40.229Z,98.38
2018-10-09T01:54:39.880Z,98.38
2018-10-09T01:55:39.226Z,98.86
2018-10-09T01:56:40.048Z,98.76
2018-10-09T01:57:39.225Z,98.76
2018-10-09T01:58:44.720Z,99.34
2018-10-09T01:59:42.710Z,98.47
2018-10-09T02:00:42.762Z,98.86
2018-10-09T02:01:41.264Z,98.96
2018-10-09T02:02:41.903Z,99.05
2018-10-09T02:03:41.229Z,98.96
2018-10-09T02:04:40.208Z,98.86
2018-10-09T02:05:38.849Z,98.96
2018-10-09T02:06:37.367Z,98.86
2018-10-09T02:07:40.629Z,98.67
2018-10-09T02:08:40.471Z,98.67
2018-10-09T02:09:40.754Z,98.96
2018-10-09T02:10:40.227Z,98.96
2018-10-09T02:11:40.345Z,98.76
2018-10-09T02:12:38.884Z,98.86
2018-10-09T02:13:39.226Z,98.19
2018-10-09T02:14:40.238Z,98.47
2018-10-09T02:15:39.727Z,99.05
2018-10-09T02:16:40.232Z,99.19
2018-10-09T02:17:39.743Z,99.53
2018-10-09T02:18:40.382Z,99.48
2018-10-09T02:19:40.314Z,99.29
2018-10-09T02:20:40.239Z,99
2018-10-09T02:21:38.904Z,98.76
2018-10-09T02:22:39.017Z,98.76
2018-10-09T02:23:39.237Z,98.86
2018-10-09T02:24:37.536Z,97.8
2018-10-09T02:25:37.006Z,98.47
2018-10-09T02:26:36.560Z,98.28
2018-10-09T02:27:35.098Z,98.19
2018-10-09T02:28:34.156Z,98.38
2018-10-09T02:29:32.671Z,98.28
2018-10-09T02:30:32.626Z,98.28
2018-10-09T02:31:32.736Z,98.47
2018-10-09T02:32:32.048Z,98.38
2018-10-09T02:33:32.292Z,98.38
2018-10-09T02:34:29.789Z,97.9
2018-10-09T02:35:30.241Z,98
2018-10-09T02:36:30.531Z,97.71
2018-10-09T02:37:29.603Z,97.71
2018-10-09T02:38:29.514Z,98
2018-10-09T02:39:29.880Z,98.28
2018-10-09T02:40:29.820Z,98.38
2018-10-09T02:41:29.396Z,98.38
2018-10-09T02:42:29.380Z,98.19
2018-10-09T02:43:30.240Z,98.19
2018-10-09T02:44:29.750Z,98.28
2018-10-09T02:45:29.743Z,98.38
2018-10-09T02:46:29.744Z,98.57
2018-10-09T02:47:29.238Z,98.28
2018-10-09T02:48:29.258Z,98.28
2018-10-09T02:49:28.255Z,98.38
2018-10-09T02:50:28.330Z,98.38
2018-10-09T02:51:27.894Z,98.28
2018-10-09T02:52:27.753Z,98.1
2018-10-09T02:53:25.651Z,98.38
2018-10-09T02:54:27.241Z,98.47
2018-10-09T02:55:25.003Z,97.8
2018-10-09T02:56:24.753Z,98.1
2018-10-09T02:57:28.034Z,98
2018-10-09T02:58:29.426Z,97.71
2018-10-09T02:59:30.253Z,97.9
2018-10-09T03:00:28.700Z,98.28
2018-10-09T03:01:27.245Z,98.38
2018-10-09T03:02:28.253Z,98.14
2018-10-09T03:03:26.965Z,98.19
2018-10-09T03:04:25.449Z,98.24
2018-10-09T03:05:25.746Z,98.28
2018-10-09T03:06:24.766Z,98.86
2018-10-09T03:07:25.752Z,98.47
2018-10-09T03:08:26.275Z,98.19
2018-10-09T03:09:26.247Z,97.8
2018-10-09T03:10:24.758Z,97.9
2018-10-09T03:11:24.254Z,97.9
2018-10-09T03:12:23.767Z,98.19
2018-10-09T03:13:22.488Z,97.85
2018-10-09T03:14:21.047Z,97.9
2018-10-09T03:15:21.074Z,97.85
2018-10-09T03:16:23.427Z,97.66
2018-10-09T03:17:23.519Z,98.43
2018-10-09T03:18:24.502Z,97.95
2018-10-09T03:19:24.215Z,97.8
2018-10-09T03:20:23.494Z,97.71
2018-10-09T03:21:23.546Z,97.95
2018-10-09T03:22:23.589Z,97.75
2018-10-09T03:23:23.848Z,98.05
2018-10-09T03:24:23.258Z,98.05
2018-10-09T03:25:23.432Z,97.75
2018-10-09T03:26:22.035Z,97.85
2018-10-09T03:27:20.630Z,97.18
2018-10-09T03:28:19.844Z,97.66
2018-10-09T03:29:19.760Z,97.66
2018-10-09T03:30:18.232Z,97.66
2018-10-09T03:31:17.692Z,97.56
2018-10-09T03:32:18.856Z,97.56
2018-10-09T03:33:21.261Z,96.99
2018-10-09T03:34:21.354Z,97.38
2018-10-09T03:35:21.275Z,97.47
2018-10-09T03:36:19.946Z,97.66
2018-10-09T03:37:21.344Z,97.75
2018-10-09T03:38:19.884Z,97.56
2018-10-09T03:39:18.533Z,97.75
2018-10-09T03:40:17.784Z,98.24
2018-10-09T03:41:19.802Z,97.47
2018-10-09T03:42:24.428Z,97.66
2018-10-09T03:43:23.037Z,97.75
2018-10-09T03:44:21.590Z,97.66
2018-10-09T03:45:21.774Z,97.75
2018-10-09T03:46:23.273Z,97.95
2018-10-09T03:47:23.273Z,98.05
2018-10-09T03:48:21.079Z,98.24
2018-10-09T03:49:21.071Z,98.33
2018-10-09T03:50:20.283Z,98.14
2018-10-09T03:51:19.771Z,98.33
2018-10-09T03:52:19.273Z,99.1
2018-10-09T03:53:17.634Z,98.05
2018-10-09T03:54:17.774Z,98.24
2018-10-09T03:55:16.780Z,98.24
2018-10-09T03:56:16.098Z,98.14
2018-10-09T03:57:15.281Z,98.05
2018-10-09T03:58:13.919Z,97.95
2018-10-09T03:59:13.782Z,97.66
2018-10-09T04:00:12.412Z,97.18
2018-10-09T04:01:11.843Z,97.56
2018-10-09T04:02:13.492Z,97.38
2018-10-09T04:03:12.714Z,97.66
2018-10-09T04:04:11.784Z,98.43
2018-10-09T04:05:12.278Z,98.62
2018-10-09T04:06:11.520Z,98.43
2018-10-09T04:07:17.779Z,98.05
2018-10-09T04:08:17.279Z,97.85
2018-10-09T04:09:16.785Z,97.85
2018-10-09T04:10:16.011Z,98.24
2018-10-09T04:11:16.806Z,98.43
2018-10-09T04:12:16.258Z,98.33
2018-10-09T04:13:17.461Z,98.24
2018-10-09T04:14:18.282Z,98.05
2018-10-09T04:15:16.407Z,98.14
2018-10-09T04:16:16.288Z,97.66
2018-10-09T04:17:15.147Z,97.95
2018-10-09T04:18:15.273Z,97.66
2018-10-09T04:19:13.987Z,97.66
2018-10-09T04:20:15.030Z,97.95
2018-10-09T04:21:15.083Z,97.18
2018-10-09T04:22:15.288Z,97.18
2018-10-09T04:23:15.465Z,97.38
2018-10-09T04:24:15.364Z,97.18
2018-10-09T04:25:15.468Z,97.56
2018-10-09T04:26:15.288Z,97.38
2018-10-09T04:27:15.305Z,97.38
2018-10-09T04:28:13.785Z,97.38
2018-10-09T04:29:12.633Z,97.61
2018-10-09T04:30:12.784Z,98.47
2018-10-09T04:31:12.279Z,98.24
2018-10-09T04:32:10.167Z,98.24
2018-10-09T04:33:11.506Z,98.14
2018-10-09T04:34:12.780Z,98.43
2018-10-09T04:35:12.316Z,97.95
2018-10-09T04:36:11.791Z,97.18
2018-10-09T04:37:13.782Z,97.18
2018-10-09T04:38:11.412Z,97.28
2018-10-09T04:39:12.795Z,97.9
2018-10-09T04:40:11.866Z,98.38
2018-10-09T04:41:11.784Z,98.19
2018-10-09T04:42:10.993Z,98.19
2018-10-09T04:43:11.090Z,98.19
2018-10-09T04:44:10.584Z,97.9
2018-10-09T04:45:10.369Z,97.52
2018-10-09T04:46:09.018Z,97.38
2018-10-09T04:47:08.297Z,97.28
2018-10-09T04:48:08.783Z,97.23
2018-10-09T04:49:08.790Z,97.09
2018-10-09T04:50:07.224Z,97.13
2018-10-09T04:51:06.598Z,96.66
2018-10-09T04:52:05.794Z,97.04
2018-10-09T04:53:04.334Z,96.75
2018-10-09T04:54:02.987Z,96.66
2018-10-09T04:55:01.515Z,96.56
2018-10-09T04:56:00.628Z,96.84
2018-10-09T04:57:02.804Z,96.18
2018-10-09T04:58:01.885Z,96.66
2018-10-09T04:59:02.820Z,97.42
2018-10-09T05:00:03.793Z,96.94
2018-10-09T05:01:01.784Z,96.94
2018-10-09T05:02:00.413Z,96.84
2018-10-09T05:02:59.796Z,97.42
2018-10-09T05:03:59.801Z,97.52
2018-10-09T05:04:59.960Z,97.61
2018-10-09T05:05:59.858Z,97.52
2018-10-09T05:06:59.631Z,96.84
2018-10-09T05:09:41.457Z,97.04
2018-10-09T05:10:41.468Z,96.47
2018-10-09T05:11:41.379Z,97.08
2018-10-09T05:12:39.915Z,97.66
2018-10-09T05:13:40.800Z,97.66
2018-10-09T05:14:39.205Z,97.33
2018-10-09T05:15:38.301Z,97.52
2018-10-09T05:16:37.822Z,97.56
2018-10-09T05:17:36.826Z,97.37
2018-10-09T05:18:34.372Z,97.08
2018-10-09T05:19:34.795Z,97.47
2018-10-09T05:20:33.384Z,97.47
2018-10-09T05:21:31.887Z,97.85
2018-10-09T05:22:32.317Z,97.56
2018-10-09T05:23:31.675Z,97.56
2018-10-09T05:24:32.219Z,97.47
2018-10-09T05:25:33.315Z,98
2018-10-09T05:26:34.337Z,97.61
2018-10-09T05:27:35.813Z,97.61
2018-10-09T05:28:33.387Z,97.13
2018-10-09T05:29:32.801Z,97.42
2018-10-09T05:30:32.196Z,97.13
2018-10-09T05:31:32.363Z,97.61
2018-10-09T05:32:31.646Z,98.95
2018-10-09T05:33:30.815Z,98.62
2018-10-09T05:34:31.640Z,98.66
2018-10-09T05:35:39.007Z,98.76
2018-10-09T05:36:41.305Z,99.1
2018-10-09T05:37:41.650Z,99.99
2018-10-09T05:38:40.126Z,99.99
2018-10-09T05:39:39.328Z,99.99
2018-10-09T05:40:38.858Z,99.99
2018-10-09T05:41:39.096Z,99.99
2018-10-09T05:42:38.413Z,99.99
2018-10-09T05:43:39.306Z,99.99
2018-10-09T05:44:38.369Z,99.99
2018-10-09T05:45:37.806Z,99.99
2018-10-09T05:46:35.460Z,99.99
2018-10-09T05:47:34.660Z,99.99
2018-10-09T05:48:34.173Z,99.99
2018-10-09T05:49:34.298Z,99.99
2018-10-09T05:50:33.456Z,99.99
2018-10-09T05:51:34.313Z,99.99
2018-10-09T05:52:35.516Z,99.99
2018-10-09T05:53:35.538Z,99.99
2018-10-09T05:54:38.310Z,99.99
2018-10-09T05:55:36.676Z,99.99
2018-10-09T05:56:37.813Z,99.99
2018-10-09T05:57:36.834Z,99.99
2018-10-09T06:00:17.420Z,99.38
2018-10-09T06:01:17.660Z,98.71
2018-10-09T06:02:17.720Z,98.81
2018-10-09T06:03:18.325Z,98.71
2018-10-09T06:04:17.471Z,98.24
2018-10-09T06:05:19.332Z,98.05
2018-10-09T06:06:17.823Z,98.05
2018-10-09T06:09:04.946Z,97.09
2018-10-09T06:10:05.326Z,97.85
2018-10-09T06:11:02.896Z,97.85
2018-10-09T06:12:01.422Z,98.38
2018-10-09T06:13:01.943Z,97.38
2018-10-09T06:14:01.833Z,99.99
2018-10-09T06:15:01.318Z,99.99
2018-10-09T06:15:59.203Z,99.99
2018-10-09T06:16:58.175Z,99.99
2018-10-09T06:37:24.801Z,99.99
2018-10-09T06:38:23.922Z,99.99
2018-10-09T06:39:23.834Z,99.99
2018-10-09T06:40:24.557Z,99.99
2018-10-09T06:41:26.342Z,99.99
2018-10-09T06:42:24.721Z,99.99
2018-10-09T06:43:24.525Z,99.99
2018-10-09T06:46:05.948Z,99.99
2018-10-09T06:47:05.449Z,99.99
2018-10-09T06:48:04.830Z,99.99
2018-10-09T06:49:05.430Z,99.1
2018-10-09T06:50:04.700Z,99.43
2018-10-09T06:51:03.226Z,99.29
2018-10-09T06:52:01.824Z,98.91
2018-10-09T06:53:00.374Z,98.14
2018-10-09T06:54:00.106Z,97.85
2018-10-09T06:54:58.198Z,97.33
2018-10-09T06:55:58.087Z,96.03
2018-10-09T06:57:00.868Z,96.13
2018-10-09T06:58:01.345Z,95.65
2018-10-09T06:58:59.926Z,95.56
2018-10-09T07:00:02.358Z,95.7
2018-10-09T07:01:00.870Z,95.41
2018-10-09T07:02:00.441Z,99.99
2018-10-09T07:03:00.590Z,99.99
2018-10-09T07:03:59.171Z,99.99
2018-10-09T07:04:58.346Z,99.99
2018-10-09T07:05:59.777Z,99.99
2018-10-09T07:06:59.094Z,99.99
2018-10-09T07:07:57.591Z,99.99
2018-10-09T07:11:50.827Z,99.99
2018-10-09T07:12:49.936Z,98.77
2018-10-09T07:13:50.197Z,97.04
2018-10-09T07:14:50.340Z,99.99
2018-10-09T07:15:48.494Z,99.99
2018-10-09T07:16:47.096Z,99.99
2018-10-09T07:17:47.076Z,99.99
2018-10-09T07:18:46.370Z,99.99
2018-10-09T07:19:45.140Z,99.99
2018-10-09T07:22:02.561Z,99.99
2018-10-09T07:23:02.063Z,99.99
2018-10-09T07:24:02.065Z,99.99
2018-10-09T07:25:00.444Z,99.99
2018-10-09T07:26:02.570Z,99.99
2018-10-09T07:27:03.083Z,99.99
2018-10-09T07:28:01.514Z,99.99
2018-10-09T07:29:02.082Z,99.99
2018-10-09T07:30:03.302Z,99.99
2018-10-09T07:31:01.787Z,99.99
2018-10-09T07:32:00.560Z,99.99
2018-10-09T07:33:03.073Z,99.68
2018-10-09T07:34:01.085Z,97.52
2018-10-09T07:34:59.651Z,97.09
2018-10-09T07:35:58.221Z,96.47
2018-10-09T07:36:59.570Z,95.89
2018-10-09T07:37:58.063Z,95.41
2018-10-09T07:40:39.070Z,99.99
2018-10-09T07:41:37.570Z,99.99
2018-10-09T07:42:36.590Z,99.99
2018-10-09T07:43:36.686Z,99.99
2018-10-09T07:44:35.858Z,99.99
2018-10-09T07:45:34.631Z,99.99
2018-10-09T07:46:33.260Z,99.54
2018-10-09T07:47:31.777Z,94.93
2018-10-09T07:48:30.491Z,95.79
2018-10-09T08:08:50.929Z,99.99
2018-10-09T08:09:50.384Z,99.99
2018-10-09T08:10:49.570Z,99.99
2018-10-09T08:11:51.081Z,99.99
2018-10-09T08:12:50.309Z,99.99
2018-10-09T08:13:51.083Z,99.99
2018-10-09T08:14:52.150Z,99.99
2018-10-09T08:15:51.928Z,99.99
2018-10-09T08:16:50.799Z,99.99
2018-10-09T08:17:50.584Z,99.99
2018-10-09T08:18:51.082Z,99.99
2018-10-09T08:19:52.084Z,99.99
2018-10-09T08:20:52.103Z,99.99
2018-10-09T08:21:52.805Z,99.01
2018-10-09T08:22:55.693Z,96.42
2018-10-09T08:23:53.354Z,95.75
2018-10-09T08:24:54.263Z,95.65
2018-10-09T08:25:54.581Z,95.98
2018-10-09T08:26:55.587Z,94.93
2018-10-09T08:27:52.754Z,95.31
2018-10-09T08:28:52.068Z,94.21
2018-10-09T08:29:52.088Z,94.93
2018-10-09T08:30:52.845Z,94.93
2018-10-09T08:31:52.070Z,94.45
2018-10-09T08:32:52.096Z,94.45
2018-10-09T08:33:49.913Z,99.99
2018-10-09T08:34:48.500Z,99.99
2018-10-09T08:35:52.096Z,99.99
2018-10-09T08:36:51.265Z,99.99
2018-10-09T08:37:51.405Z,99.99
2018-10-09T08:38:52.104Z,99.99
2018-10-09T08:39:51.099Z,99.99
2018-10-09T08:40:51.804Z,99.99
2018-10-09T08:41:50.589Z,99.99
2018-10-09T08:42:50.439Z,96.61
2018-10-09T08:43:50.110Z,96.61
2018-10-09T08:44:49.104Z,96.22
2018-10-09T08:45:50.590Z,94.98
2018-10-09T08:46:49.598Z,99.99
2018-10-09T08:47:48.620Z,99.99
2018-10-09T08:48:49.653Z,99.99
2018-10-09T08:49:47.365Z,99.06
2018-10-09T08:50:50.602Z,99.99
2018-10-09T08:51:51.127Z,99.99
2018-10-09T08:52:51.440Z,99.99
2018-10-09T08:53:50.364Z,99.99
2018-10-09T08:54:52.600Z,99.99
2018-10-09T08:55:51.398Z,99.99
2018-10-09T08:58:31.769Z,99.58
2018-10-09T08:59:32.251Z,96.51
2018-10-09T09:00:32.605Z,96.22
2018-10-09T09:01:31.125Z,96.32
2018-10-09T09:02:31.595Z,96.47
2018-10-09T09:03:31.804Z,96.13
2018-10-09T09:04:31.754Z,96.17
2018-10-09T09:05:31.758Z,97.71
2018-10-09T09:06:30.348Z,99.99
2018-10-09T09:07:31.893Z,99.99
2018-10-09T09:08:34.110Z,99.99
2018-10-09T09:09:31.914Z,99.99
2018-10-09T09:10:33.101Z,99.99
2018-10-09T09:11:34.097Z,99.99
2018-10-09T09:12:32.265Z,99.99
2018-10-09T09:13:31.614Z,99.99
2018-10-09T09:14:31.149Z,99.99
2018-10-09T09:15:36.101Z,99.99
2018-10-09T09:16:32.992Z,98.77
2018-10-09T09:17:32.169Z,98.82
2018-10-09T09:18:31.623Z,97.76
2018-10-09T09:19:30.689Z,97.47
2018-10-09T09:20:30.716Z,99.99
2018-10-09T09:21:30.752Z,99.99
2018-10-09T09:22:31.613Z,99.99
2018-10-09T09:23:30.689Z,99.99
2018-10-09T09:24:31.667Z,99.99
2018-10-09T09:25:29.403Z,99.99
2018-10-09T09:26:35.711Z,99.99
2018-10-09T09:27:34.748Z,99.99
2018-10-09T09:28:34.044Z,99.68
2018-10-09T09:29:40.817Z,99.99
2018-10-09T09:30:42.309Z,98.34
2018-10-09T09:33:41.188Z,96.32
2018-10-09T09:34:41.759Z,95.6
2018-10-09T09:35:43.613Z,95.79
2018-10-09T09:36:42.458Z,94.83
2018-10-09T09:37:41.621Z,95.55
2018-10-09T09:38:42.113Z,99.99
2018-10-09T09:42:20.178Z,99.26
2018-10-09T09:43:18.689Z,97.71
2018-10-09T09:44:18.743Z,94.92
2018-10-09T09:45:20.746Z,97.14
2018-10-09T09:46:20.101Z,97.91
2018-10-09T09:47:19.247Z,99.99
2018-10-09T09:48:21.132Z,97.42
2018-10-09T09:49:22.126Z,95.89
2018-10-09T09:50:20.722Z,97.04
2018-10-09T09:51:19.203Z,98.87
2018-10-09T09:52:19.314Z,94.64
2018-10-09T09:53:19.615Z,99.99
2018-10-09T09:54:17.793Z,99.99
2018-10-09T09:55:17.895Z,99.99
2018-10-09T09:56:17.626Z,99.99
2018-10-09T09:57:15.521Z,99.99
2018-10-09T09:58:15.107Z,99.99
2018-10-09T09:59:14.195Z,99.99
2018-10-09T10:01:23.065Z,97.62
2018-10-09T10:02:21.586Z,96.32
2018-10-09T10:03:22.011Z,99.06
2018-10-09T10:04:20.188Z,99.99
2018-10-09T10:05:20.207Z,99.99
2018-10-09T10:06:22.020Z,99.99
2018-10-09T10:07:20.636Z,99.99
2018-10-09T10:08:21.029Z,99.99
2018-10-09T10:09:21.600Z,99.99
2018-10-09T10:10:21.025Z,99.99
2018-10-09T10:11:19.636Z,99.99
2018-10-09T10:12:19.035Z,99.99
2018-10-09T10:13:18.528Z,99.99
2018-10-09T10:14:18.026Z,99.99
2018-10-09T10:15:16.840Z,99.99
2018-10-09T10:16:18.518Z,98.05
2018-10-09T10:17:17.517Z,96.03
2018-10-09T10:18:19.626Z,94.87
2018-10-09T10:19:19.060Z,97.19
2018-10-09T10:20:18.675Z,95.36
2018-10-09T10:21:17.251Z,99.21
2018-10-09T10:22:16.557Z,99.99
2018-10-09T10:23:16.034Z,99.99
2018-10-09T10:24:13.685Z,99.99
2018-10-09T10:25:12.508Z,99.99
2018-10-09T10:26:12.715Z,99.99
2018-10-09T10:27:13.527Z,99.99
2018-10-09T10:28:12.037Z,99.99
2018-10-09T10:29:12.103Z,99.99
2018-10-09T10:30:14.533Z,99.99
2018-10-09T10:31:12.713Z,99.99
2018-10-09T10:32:12.525Z,99.99
2018-10-09T10:33:11.541Z,99.99
2018-10-09T10:34:10.538Z,99.99
2018-10-09T10:36:30.124Z,99.99
2018-10-09T10:37:28.784Z,99.99
2018-10-09T10:38:28.694Z,99.99
2018-10-09T10:39:28.612Z,99.99
2018-10-09T10:40:28.110Z,99.99
2018-10-09T10:41:28.125Z,99.99
2018-10-09T10:42:25.870Z,99.99
2018-10-09T10:43:26.936Z,99.99
2018-10-09T10:44:25.453Z,99.99
2018-10-09T10:45:24.701Z,99.99
2018-10-09T10:46:25.481Z,99.99
2018-10-09T10:47:26.638Z,99.99
2018-10-09T10:48:24.614Z,99.99
2018-10-09T10:49:24.159Z,99.99
2018-10-09T10:50:24.242Z,98
2018-10-09T10:51:25.113Z,99.99
2018-10-09T10:52:24.564Z,99.99
2018-10-09T10:53:25.626Z,99.99
2018-10-09T10:54:24.442Z,99.99
2018-10-09T10:55:23.119Z,99.99
2018-10-09T10:56:23.615Z,99.99
2018-10-09T10:57:24.118Z,99.99
2018-10-09T10:58:24.109Z,99.99
2018-10-09T10:59:27.117Z,99.93
2018-10-09T11:00:26.141Z,94.48
2018-10-09T11:01:26.734Z,98.92
2018-10-09T11:04:07.208Z,96.51
2018-10-09T11:05:06.618Z,99.99
2018-10-09T11:06:04.376Z,96.8
2018-10-09T11:07:05.117Z,93.23
2018-10-09T11:08:04.818Z,95.54
2018-10-09T11:09:04.162Z,90.72
2018-10-09T11:10:04.623Z,99.99
2018-10-09T11:11:02.207Z,99.99
2018-10-09T11:12:01.642Z,98.29
2018-10-09T11:13:02.115Z,99.99
2018-10-09T11:14:02.116Z,99.99
2018-10-09T11:15:00.568Z,99.99
2018-10-09T11:15:59.028Z,99.99
2018-10-09T11:16:57.566Z,99.99
2018-10-09T11:17:56.327Z,93.66
2018-10-09T11:18:56.620Z,92.02
2018-10-09T11:19:56.127Z,98.2
2018-10-09T11:20:55.795Z,99.26
2018-10-09T11:21:55.154Z,93.13
2018-10-09T11:23:10.626Z,91.02
2018-10-09T11:24:10.122Z,91.02
2018-10-09T11:25:10.638Z,97.47
2018-10-09T11:26:09.141Z,91.3
2018-10-09T11:27:10.292Z,95.45
2018-10-09T11:29:51.126Z,92.17
2018-10-09T11:30:50.143Z,93.04
2018-10-09T11:31:49.372Z,95.88
2018-10-09T11:32:50.128Z,92.02
2018-10-09T11:33:50.175Z,99.07
2018-10-09T11:34:50.172Z,95.69
2018-10-09T11:35:49.410Z,92.5
2018-10-09T11:36:50.377Z,98.1
2018-10-09T11:37:49.416Z,99.99
2018-10-09T11:58:13.660Z,95.11
2018-10-09T11:59:14.138Z,95.79
2018-10-09T12:00:12.517Z,96.66
2018-10-09T12:01:11.144Z,92.32
2018-10-09T12:02:11.216Z,89.61
2018-10-09T12:03:17.266Z,89.81
2018-10-09T12:04:15.817Z,87.82
2018-10-09T12:05:16.159Z,87.88
2018-10-09T12:06:14.961Z,86.86
2018-10-09T12:07:13.480Z,86.18
2018-10-09T12:08:12.045Z,86.96
2018-10-09T12:10:35.366Z,87.73
2018-10-09T12:11:37.647Z,88.89
2018-10-09T12:12:39.151Z,91.49
2018-10-09T12:13:38.150Z,91.97
2018-10-09T12:14:35.457Z,90.23
2018-10-09T12:15:33.964Z,93.13
2018-10-09T12:16:34.352Z,89.07
2018-10-09T12:17:35.673Z,88.89
2018-10-09T12:18:35.153Z,91.92
2018-10-09T12:19:36.642Z,94.53
2018-10-09T12:20:38.905Z,95.01
2018-10-09T12:21:37.609Z,91.35
2018-10-09T12:22:36.663Z,96.17
2018-10-09T12:23:34.628Z,96.17
2018-10-09T12:24:36.655Z,97.33
2018-10-09T12:25:36.149Z,95.68
2018-10-09T12:26:36.160Z,95.88
2018-10-09T12:27:33.108Z,99.99
2018-10-09T12:28:34.705Z,92.31
2018-10-09T12:29:34.040Z,87.82
2018-10-09T12:30:32.657Z,89.75
2018-10-09T12:31:33.162Z,86.47
2018-10-09T12:32:31.195Z,89.95
2018-10-09T12:33:29.905Z,95.25
2018-10-09T12:34:29.658Z,88.89
2018-10-09T12:35:29.204Z,85.6
2018-10-09T12:36:32.266Z,85.89
2018-10-09T12:37:31.667Z,84.83
2018-10-09T12:38:30.712Z,88.69
2018-10-09T12:39:28.733Z,86.28
2018-10-09T12:40:28.159Z,85.22
2018-10-09T12:42:37.980Z,90.81
2018-10-09T12:43:37.913Z,92.65
2018-10-09T12:44:37.977Z,87.92
2018-10-09T12:45:38.438Z,84.93
2018-10-09T12:46:42.834Z,85.99
2018-10-09T12:47:45.348Z,84.54
2018-10-09T12:48:44.845Z,84.44
2018-10-09T12:49:43.339Z,83.67
2018-10-09T12:50:42.851Z,84.25
2018-10-09T12:51:41.298Z,83.58
2018-10-09T12:52:39.799Z,84.16
2018-10-09T12:53:41.927Z,84.06
2018-10-09T12:54:47.538Z,84.25
2018-10-09T12:55:48.609Z,83.52
2018-10-09T12:56:46.052Z,83.42
2018-10-09T12:57:44.740Z,84.3
2018-10-09T13:00:04.518Z,84.2
2018-10-09T13:01:03.532Z,83.42
2018-10-09T13:02:03.529Z,82.75
2018-10-09T13:03:05.330Z,82.94
2018-10-09T13:04:05.023Z,82.75
2018-10-09T13:05:04.589Z,83.14
2018-10-09T13:06:03.896Z,83.14
2018-10-09T13:07:02.462Z,83.23
2018-10-09T13:08:01.063Z,84
2018-10-09T13:09:00.576Z,82.79
2018-10-09T13:10:04.040Z,83.42
2018-10-09T13:11:04.533Z,83.47
2018-10-09T13:12:01.892Z,87.96
2018-10-09T13:13:02.532Z,85.06
2018-10-09T13:14:02.338Z,84.48
2018-10-09T13:15:04.529Z,85.06
2018-10-09T13:16:03.861Z,87.09
2018-10-09T13:17:02.456Z,84.68
2018-10-09T13:18:07.816Z,89.75
2018-10-09T13:19:07.053Z,86.08
2018-10-09T13:20:07.030Z,85.6
2018-10-09T13:21:05.675Z,85.99
2018-10-09T13:22:05.719Z,88.15
2018-10-09T13:23:03.212Z,84.74
2018-10-09T13:24:02.727Z,85.7
2018-10-09T13:25:02.861Z,83.62
2018-10-09T13:26:04.542Z,83.58
2018-10-09T13:27:04.583Z,83.33
2018-10-09T13:28:04.041Z,83.42
2018-10-09T13:29:01.714Z,83.14
2018-10-09T13:30:01.015Z,83.81
2018-10-09T13:31:00.580Z,83.23
2018-10-09T13:32:00.046Z,83.14
2018-10-09T13:33:00.044Z,83.33
2018-10-09T13:33:58.712Z,82.46
2018-10-09T13:34:58.708Z,82.26
2018-10-09T13:36:00.545Z,83.52
2018-10-09T13:36:59.560Z,83.18
2018-10-09T13:38:01.071Z,82.17
2018-10-09T13:39:00.116Z,83.18
2018-10-09T13:40:00.064Z,82.98
2018-10-09T13:40:59.418Z,81.44
2018-10-09T13:41:58.003Z,80.91
2018-10-09T13:42:57.557Z,80.33
2018-10-09T13:43:57.719Z,81.2
2018-10-09T13:44:56.260Z,81.2
2018-10-09T13:45:56.231Z,81.11
2018-10-09T13:46:56.293Z,80.72
2018-10-09T13:47:55.743Z,81.98
2018-10-09T13:48:55.166Z,81.59
2018-10-09T13:49:54.579Z,82.26
2018-10-09T13:50:54.632Z,81.88
2018-10-09T13:51:55.098Z,80.82
2018-10-09T13:52:55.049Z,81.01
2018-10-09T13:53:54.774Z,80.33
2018-10-09T13:54:55.701Z,80.53
2018-10-09T13:55:54.815Z,79.75
2018-10-09T13:56:57.632Z,79.56
2018-10-09T13:57:56.270Z,79.37
2018-10-09T13:58:56.260Z,79.95
2018-10-09T13:59:59.065Z,80.24
2018-10-09T14:01:00.081Z,79.66
2018-10-09T14:01:58.567Z,79.43
2018-10-09T14:02:57.172Z,79.81
2018-10-09T14:03:58.168Z,79.43
2018-10-09T14:04:57.551Z,79.43
2018-10-09T14:05:56.573Z,79.33
2018-10-09T14:06:54.616Z,79.91
2018-10-09T14:07:54.265Z,79.75
2018-10-09T14:08:53.428Z,79.56
2018-10-09T14:09:52.179Z,80
2018-10-09T14:10:53.078Z,79.24
2018-10-09T14:11:51.434Z,79.14
2018-10-09T14:12:50.939Z,79.04
2018-10-09T14:13:51.146Z,79.75
2018-10-09T14:14:51.075Z,79.33
2018-10-09T14:15:49.145Z,79.95
2018-10-09T14:16:48.718Z,80.24
2018-10-09T14:17:55.271Z,80.14
2018-10-09T14:18:54.560Z,80.24
2018-10-09T14:19:52.318Z,79.37
2018-10-09T14:20:52.559Z,79.47